Time;durP1;ratioP1;P1;durP2;ratioP2;P2;SDS_P1;SDS_P2;PMS_P1;PMS_P2;Temp;Humidity;BMP_temperature;BMP_pressure;BME280_temperature;BME280_humidity;BME280_pressure;Samples;Min_cycle;Max_cycle;Signal;HPM_P1;HPM_P2
2021/06/14 00:04:50;;;;;;;16;6.4;;;;;;;11.14;100;99185;;;;
2021/06/14 00:14:49;;;;;;;15.2;6.7;;;;;;;11.1;100;99164.02;;;;
2021/06/14 00:24:47;;;;;;;6.7;5.1;;;;;;;11.02;100;99153.89;;;;
2021/06/14 00:34:46;;;;;;;9.4;6;;;;;;;10.89;100;99159.25;;;;
2021/06/14 00:44:45;;;;;;;10.1;5.5;;;;;;;10.79;100;99148.64;;;;
2021/06/14 00:54:43;;;;;;;11.8;4.7;;;;;;;10.77;100;99162.41;;;;
2021/06/14 01:04:42;;;;;;;9;5;;;;;;;10.68;100;99164.17;;;;
2021/06/14 01:14:41;;;;;;;8.7;5.8;;;;;;;10.66;100;99157.45;;;;
2021/06/14 01:24:40;;;;;;;6.9;4.8;;;;;;;10.58;100;99165.14;;;;
2021/06/14 01:34:38;;;;;;;10.8;4.6;;;;;;;10.39;100;99171.61;;;;
2021/06/14 01:44:37;;;;;;;8.7;5.3;;;;;;;10.17;100;99174.88;;;;
2021/06/14 01:54:36;;;;;;;10;5.4;;;;;;;9.83;100;99176.91;;;;
2021/06/14 02:04:34;;;;;;;6.9;4.7;;;;;;;9.68;100;99171.72;;;;
2021/06/14 02:14:33;;;;;;;8.4;4.9;;;;;;;9.45;100;99174.11;;;;
2021/06/14 02:24:31;;;;;;;10.1;5.2;;;;;;;9.34;100;99171.8;;;;
2021/06/14 02:34:30;;;;;;;9;4.9;;;;;;;9.23;100;99173.02;;;;
2021/06/14 02:44:29;;;;;;;14.4;6.4;;;;;;;9.13;100;99178.5;;;;
2021/06/14 02:54:28;;;;;;;11.2;5.5;;;;;;;9.18;100;99183.81;;;;
2021/06/14 03:04:26;;;;;;;17.7;6.4;;;;;;;9.21;100;99169.79;;;;
2021/06/14 03:14:25;;;;;;;12.8;6;;;;;;;9.3;100;99181.55;;;;
2021/06/14 03:24:23;;;;;;;13.9;6.6;;;;;;;9.35;100;99184.17;;;;
2021/06/14 03:34:27;;;;;;;10.3;6.6;;;;;;;9.51;100;99182.95;;;;
2021/06/14 03:44:20;;;;;;;10.2;6.1;;;;;;;9.66;100;99190.03;;;;
2021/06/14 03:54:19;;;;;;;12.3;7.3;;;;;;;9.91;100;99193.23;;;;
2021/06/14 04:04:33;;;;;;;9.4;4.8;;;;;;;10.21;100;99180.48;;;;
2021/06/14 04:14:17;;;;;;;11.7;7.6;;;;;;;10.32;100;99176.56;;;;
2021/06/14 04:24:15;;;;;;;13.4;9.4;;;;;;;10.48;100;99183.36;;;;
2021/06/14 04:34:14;;;;;;;16.6;8.3;;;;;;;10.91;100;99192.11;;;;
2021/06/14 04:44:13;;;;;;;11.5;5.5;;;;;;;11.25;100;99191.8;;;;
2021/06/14 04:54:12;;;;;;;13.4;7.2;;;;;;;11.57;100;99187.16;;;;
2021/06/14 05:04:11;;;;;;;14.4;6.5;;;;;;;11.75;100;99203.59;;;;
2021/06/14 05:14:10;;;;;;;9;5.2;;;;;;;12.18;100;99198.67;;;;
2021/06/14 05:24:09;;;;;;;15.3;5.4;;;;;;;12.57;100;99206.98;;;;
2021/06/14 05:34:08;;;;;;;11.4;6;;;;;;;12.59;100;99200.19;;;;
2021/06/14 05:44:07;;;;;;;12.7;6;;;;;;;12.93;100;99199.64;;;;
2021/06/14 05:54:06;;;;;;;14.8;7.3;;;;;;;12.94;100;99209.38;;;;
2021/06/14 06:04:05;;;;;;;12.5;6.8;;;;;;;13.21;100;99213.07;;;;
2021/06/14 06:14:04;;;;;;;12.7;6.2;;;;;;;13.2;100;99206.84;;;;
2021/06/14 06:24:03;;;;;;;14.8;7.8;;;;;;;13.73;100;99203.3;;;;
2021/06/14 06:34:02;;;;;;;7.6;4.6;;;;;;;13.92;100;99193.8;;;;
2021/06/14 06:44:02;;;;;;;9.2;5.2;;;;;;;14.01;100;99191.93;;;;
2021/06/14 06:54:13;;;;;;;15.8;6.1;;;;;;;14.46;100;99197.14;;;;
2021/06/14 07:04:00;;;;;;;7.4;4.5;;;;;;;14.82;100;99188.7;;;;
2021/06/14 07:14:00;;;;;;;12.1;4.3;;;;;;;15.11;100;99175.23;;;;
2021/06/14 07:24:00;;;;;;;10.2;5;;;;;;;15.39;100;99173.72;;;;
2021/06/14 07:34:01;;;;;;;14.3;4.9;;;;;;;15.97;100;99172.22;;;;
2021/06/14 07:43:58;;;;;;;10.9;3.6;;;;;;;16.38;100;99177.7;;;;
2021/06/14 07:53:58;;;;;;;6.8;2.8;;;;;;;16.92;97.8457;99180.52;;;;
2021/06/14 08:03:58;;;;;;;4.9;2.5;;;;;;;17.28;92.99023;99177.13;;;;
2021/06/14 08:13:58;;;;;;;3.9;1.9;;;;;;;17.43;88.52637;99152.73;;;;
2021/06/14 08:33:56;;;;;;;4.9;2.1;;;;;;;18.02;83.45898;99169.48;;;;
2021/06/14 08:43:56;;;;;;;3.4;1.9;;;;;;;18.17;84.64355;99167.2;;;;
2021/06/14 08:53:55;;;;;;;9.7;2.2;;;;;;;18.29;82.03027;99159.78;;;;
2021/06/14 09:03:55;;;;;;;3.5;1.9;;;;;;;18.45;82.55371;99165.33;;;;
2021/06/14 09:13:55;;;;;;;5.6;1.6;;;;;;;19.29;76.25684;99169.69;;;;
2021/06/14 09:23:55;;;;;;;3.3;1.4;;;;;;;18.97;78.99609;99165.3;;;;
2021/06/14 09:33:55;;;;;;;4;1.6;;;;;;;19.43;77.30469;99147.42;;;;
2021/06/14 09:43:55;;;;;;;3.2;1.4;;;;;;;19.22;71.32617;99147.64;;;;
2021/06/14 09:53:54;;;;;;;5.6;2.3;;;;;;;19.82;71.75586;99142.92;;;;
2021/06/14 10:03:54;;;;;;;2.7;1.5;;;;;;;19.87;68.26563;99137.95;;;;
2021/06/14 10:13:54;;;;;;;2.9;1.1;;;;;;;20.05;62.58887;99132.9;;;;
2021/06/14 10:23:55;;;;;;;4.2;1.5;;;;;;;20.31;61.96484;99130.38;;;;
2021/06/14 10:33:54;;;;;;;2.5;1.2;;;;;;;20.61;61.31055;99116.13;;;;
2021/06/14 10:43:54;;;;;;;3.7;1.6;;;;;;;20.21;59.08887;99114.48;;;;
2021/06/14 10:53:59;;;;;;;3.5;1.3;;;;;;;20.96;60.36035;99109.38;;;;
2021/06/14 11:03:54;;;;;;;2.5;1.2;;;;;;;20.84;61.18066;99106.81;;;;
2021/06/14 11:13:54;;;;;;;2.6;1.1;;;;;;;21.36;61.33203;99094.45;;;;
2021/06/14 11:23:55;;;;;;;3;1.8;;;;;;;21.2;56.47656;99078.14;;;;
2021/06/14 11:33:54;;;;;;;3.1;1.1;;;;;;;21.71;57.77344;99077.77;;;;
2021/06/14 11:43:54;;;;;;;2.6;1.2;;;;;;;20.71;55.85645;99064.3;;;;
2021/06/14 11:53:55;;;;;;;2.7;1.3;;;;;;;21.5;60.20117;99056.3;;;;
2021/06/14 12:03:54;;;;;;;3.1;1.7;;;;;;;21.53;56.69141;99050.06;;;;
2021/06/14 12:13:54;;;;;;;4;1;;;;;;;20.36;58.00488;99066.34;;;;
2021/06/14 12:23:54;;;;;;;4.8;1.8;;;;;;;21.15;57.94629;99053.77;;;;
2021/06/14 12:33:54;;;;;;;2.5;1.2;;;;;;;20.97;59.39844;99049.88;;;;
2021/06/14 12:43:54;;;;;;;2.4;1.1;;;;;;;21.79;56.01465;99036.36;;;;
2021/06/14 12:53:54;;;;;;;2.6;1.1;;;;;;;22.47;54;99029.79;;;;
2021/06/14 13:03:54;;;;;;;2.7;1.5;;;;;;;21.53;57.82031;99030.87;;;;
2021/06/14 13:13:55;;;;;;;3.2;1.1;;;;;;;22.75;56.00586;99032.88;;;;
2021/06/14 13:23:55;;;;;;;4.1;1.8;;;;;;;22.43;51.62402;99017.97;;;;
2021/06/14 13:33:58;;;;;;;3.3;1.3;;;;;;;21.41;54.01074;99004.46;;;;
2021/06/14 13:43:55;;;;;;;3.6;1.5;;;;;;;22.35;51.48633;99000.61;;;;
2021/06/14 13:54:00;;;;;;;4.4;1.5;;;;;;;23.24;49.78711;98996.8;;;;
2021/06/14 14:03:55;;;;;;;2.3;1.1;;;;;;;21.78;53.35645;98981.84;;;;
2021/06/14 14:13:56;;;;;;;2.8;1.6;;;;;;;23.04;50.12793;98982.51;;;;
2021/06/14 14:23:56;;;;;;;3.2;1.1;;;;;;;23.55;48.87207;98966;;;;
2021/06/14 14:33:56;;;;;;;2.4;1.3;;;;;;;23.57;48.46387;98951.84;;;;
2021/06/14 14:43:57;;;;;;;4.2;2;;;;;;;23.71;50.64648;98951.91;;;;
2021/06/14 14:54:02;;;;;;;3;1.3;;;;;;;23.94;47.82422;98935.91;;;;
2021/06/14 15:03:58;;;;;;;3.8;1.2;;;;;;;25.36;41.99121;98933.34;;;;
2021/06/14 15:13:58;;;;;;;5.1;2.2;;;;;;;27.94;33.11328;98929.59;;;;
2021/06/14 15:23:59;;;;;;;2.5;1.1;;;;;;;28.58;33.18457;98937.06;;;;
2021/06/14 15:34:00;;;;;;;3;0.8;;;;;;;28.94;29.59766;98934.55;;;;
2021/06/14 15:44:01;;;;;;;29.4;12.2;;;;;;;29.83;27.20605;98937.3;;;;
2021/06/14 15:54:02;;;;;;;3.1;1.3;;;;;;;30.51;28.27637;98922.75;;;;
2021/06/14 16:04:04;;;;;;;2.7;0.9;;;;;;;30.19;28.07715;98923.47;;;;
2021/06/14 16:14:05;;;;;;;2.7;1.2;;;;;;;30.96;28.71094;98922.88;;;;
2021/06/14 16:24:06;;;;;;;2.2;0.9;;;;;;;31.07;28.1543;98908.69;;;;
2021/06/14 16:34:08;;;;;;;3.3;1.1;;;;;;;31.21;26.96484;98908.33;;;;
2021/06/14 16:44:09;;;;;;;3.2;1.5;;;;;;;32;26.54297;98911.32;;;;
2021/06/14 16:54:14;;;;;;;7.7;4.1;;;;;;;31.1;27.0293;98907.84;;;;
2021/06/14 17:04:12;;;;;;;12.6;8.4;;;;;;;31.57;26.97363;98913.75;;;;
2021/06/14 17:14:14;;;;;;;2.9;1.4;;;;;;;27.14;32.8291;98901.61;;;;
2021/06/14 17:24:15;;;;;;;13.4;8.6;;;;;;;25.02;35.54395;98895.19;;;;
2021/06/14 17:34:15;;;;;;;15.6;9;;;;;;;27.01;34.08887;98893.02;;;;
2021/06/14 17:44:17;;;;;;;14.5;8.9;;;;;;;28.62;31.00781;98889.86;;;;
2021/06/14 17:54:17;;;;;;;6.2;2.6;;;;;;;29.15;30.41113;98888.99;;;;
2021/06/14 18:04:18;;;;;;;17.3;9.4;;;;;;;27.08;32.64746;98889.39;;;;
2021/06/14 18:14:19;;;;;;;3.5;1.6;;;;;;;24.21;37.1875;98888.8;;;;
2021/06/14 18:24:23;;;;;;;53.1;37.1;;;;;;;22.33;42.58594;98904.09;;;;
2021/06/14 18:34:20;;;;;;;31.6;22.8;;;;;;;20.82;45.5918;98903.66;;;;
2021/06/14 18:44:20;;;;;;;15.1;11.2;;;;;;;19.54;50.91895;98907.88;;;;
2021/06/14 18:54:20;;;;;;;18.2;8.7;;;;;;;18.28;54.74316;98918.08;;;;
2021/06/14 19:04:19;;;;;;;10.4;6.9;;;;;;;17.34;64.99219;98914.2;;;;
2021/06/14 19:14:19;;;;;;;7.6;6;;;;;;;16.43;71.6582;98923.7;;;;
2021/06/14 19:24:19;;;;;;;10.4;6.6;;;;;;;15.87;73.99219;98927.95;;;;
2021/06/14 19:34:18;;;;;;;10.8;6.3;;;;;;;15.33;76.97168;98930.6;;;;
2021/06/14 19:44:17;;;;;;;7.7;5.6;;;;;;;14.87;80.93359;98928.78;;;;
2021/06/14 19:54:16;;;;;;;6.9;5.1;;;;;;;14.52;84.98438;98941.7;;;;
2021/06/14 20:04:15;;;;;;;8.9;6.6;;;;;;;14.2;85.6377;98946.84;;;;
2021/06/14 20:14:15;;;;;;;42.3;24;;;;;;;13.95;83.58105;98945.8;;;;
2021/06/14 20:24:14;;;;;;;14;8.2;;;;;;;13.48;87.25293;98947.53;;;;
2021/06/14 20:34:13;;;;;;;8.4;4.6;;;;;;;13.11;91.30664;98954.33;;;;
2021/06/14 20:44:12;;;;;;;8.6;4;;;;;;;12.82;96.03027;98954.03;;;;
2021/06/14 20:54:11;;;;;;;12.6;7.5;;;;;;;12.71;94.67676;98942.7;;;;
2021/06/14 21:04:09;;;;;;;11.7;5;;;;;;;12.48;94.61523;98962.8;;;;
2021/06/14 21:14:09;;;;;;;6.2;3;;;;;;;12.2;95.77246;98953.26;;;;
2021/06/14 21:24:07;;;;;;;6.8;2.3;;;;;;;12.01;100;98962.35;;;;
2021/06/14 21:34:09;;;;;;;6.3;3.2;;;;;;;11.78;99.2002;98959.95;;;;
2021/06/14 21:44:05;;;;;;;5.1;3;;;;;;;11.56;98.7793;98957.98;;;;
2021/06/14 21:54:04;;;;;;;7.4;3;;;;;;;11.39;100;98953.23;;;;
2021/06/14 22:04:02;;;;;;;4.7;2.4;;;;;;;11.25;100;98951.66;;;;
2021/06/14 22:14:08;;;;;;;7.5;3.8;;;;;;;11.1;100;98956.3;;;;
2021/06/14 22:24:00;;;;;;;6.9;3;;;;;;;10.91;100;98958.3;;;;
2021/06/14 22:33:58;;;;;;;8.5;5.4;;;;;;;10.84;100;98952.51;;;;
2021/06/14 22:43:57;;;;;;;6.9;4.6;;;;;;;10.8;100;98966.88;;;;
2021/06/14 22:53:56;;;;;;;9.3;4.5;;;;;;;10.68;100;98970.09;;;;
2021/06/14 23:03:54;;;;;;;5.7;4.4;;;;;;;10.61;100;98953.51;;;;
2021/06/14 23:13:53;;;;;;;8.1;4.8;;;;;;;10.36;100;98951.27;;;;
2021/06/14 23:23:51;;;;;;;8.7;4.6;;;;;;;10.29;100;98945.47;;;;
2021/06/14 23:33:50;;;;;;;7.4;5.1;;;;;;;10.22;100;98945.86;;;;
2021/06/14 23:43:49;;;;;;;7.6;4.7;;;;;;;10.18;100;98938.66;;;;
2021/06/14 23:53:47;;;;;;;6.8;4.4;;;;;;;10.07;100;98929.92;;;;
